Metar Cercanos

 

LEPA - Palma De Mallorc, Spain
Distance from station: ONO 38km
Actualización: Tue, 28-Jun-2022 4:30am CEST
Few Clouds
Few Clouds
 Viento del SSE
Viento: SSE 4 km/h
Temperatura: 23°C
Rocío: 19°C
Humedad: 78%
Barómetro: 1016 hPa
Clouds: Few Clouds
Visibility: 10 km
Cloud details: Few Clouds 1219 m
2022/06/28 02:30 LEPA 280230Z 16002KT 9999 FEW040 23/19 Q1016 NOSIG
LEMH - Mahon/Menorca Is, Spain
Distance from station: ENE 105km
Actualización: Tue, 28-Jun-2022 4:30am CEST
Despejado
Despejado
 Viento del N
Viento: N 20 km/h
Temperatura: 22°C
Rocío: 16°C
Humedad: 69%
Barómetro: 1015 hPa
Resumen: Despejado
Visibility: greater than 10 km
2022/06/28 02:30 LEMH 280230Z AUTO 35011KT 310V010 CAVOK 22/16 Q1015
 
LEIB - Ibiza/Es Codola, Spain
Distance from station: OSO 165km
Actualización: Tue, 28-Jun-2022 4:30am CEST
Despejado
Despejado
 Viento del N
Viento: N 9 km/h
Temperatura: 23°C
Rocío: 18°C
Humedad: 74%
Barómetro: 1016 hPa
Resumen: Despejado
Visibility: greater than 10 km
2022/06/28 02:30 LEIB 280230Z 01005KT CAVOK 23/18 Q1016 NOSIG
LEBL - Barcelona Airpor, Spain
Distance from station: NNO 225km
Actualización: Tue, 28-Jun-2022 4:30am CEST
Few Clouds
Few Clouds
 Viento del NO
Viento: NO 19 km/h
Temperatura: 22°C
Rocío: 14°C
Humedad: 61%
Barómetro: 1015 hPa
Clouds: Few Clouds
Visibility: 10 km
Cloud details: Few Clouds 914 m
2022/06/28 02:30 LEBL 280230Z 32010KT 290V350 9999 FEW030 22/14 Q1015 TEMPO FEW025CB
 
LEVC - Valencia (civ/Mi, Spain
Distance from station: NO 188km
Actualización: Tue, 28-Jun-2022 4:30am CEST
Despejado
Despejado
 Viento del ONO
Viento: ONO 7 km/h
Temperatura: 18°C
Rocío: 16°C
Humedad: 88%
Barómetro: 1018 hPa
Resumen: Despejado
Visibility: greater than 10 km
2022/06/28 02:30 LEVC 280230Z 30004KT 240V330 CAVOK 18/16 Q1018 NOSIG
LEGE - Gerona/Costa Bra, Spain
Distance from station: N 276km
Actualización: Tue, 28-Jun-2022 4:30am CEST
Despejado
Despejado
 Viento del ONO
Viento: ONO 6 km/h
Temperatura: 15°C
Rocío: 14°C
Humedad: 94%
Barómetro: 1016 hPa
Resumen: Despejado
Visibility: greater than 10 km
2022/06/28 02:30 LEGE 280230Z 29003KT CAVOK 15/14 Q1016
 
LEAL - Alicante/El Alte, Spain
Distance from station: OSO 344km
Actualización: Tue, 28-Jun-2022 4:30am CEST
Few Clouds
Few Clouds
 Viento del OSO
Viento: OSO 9 km/h
Temperatura: 21°C
Rocío: 19°C
Humedad: 88%
Barómetro: 1017 hPa
Clouds: Few Clouds
Visibility: 10 km
Cloud details: Few Clouds 549 m
2022/06/28 02:30 LEAL 280230Z 25005KT 9999 FEW018 21/19 Q1017 NOSIG
LEAM - Almeria Airport, Spain
Distance from station: SSO 56km
Actualización: Tue, 28-Jun-2022 4:30am CEST
Despejado
Despejado
 Viento del varies
Viento: varies 4 km/h
Temperatura: 19°C
Rocío: 13°C
Humedad: 68%
Barómetro: 1017 hPa
Resumen: Despejado
Visibility: greater than 10 km
2022/06/28 02:30 LEAM 280230Z AUTO VRB02KT CAVOK 19/13 Q1017
 
LEZG - Zaragoza (mil/Ci, Spain
Distance from station: NO 431km
Actualización: Tue, 28-Jun-2022 4:30am CEST
Despejado
Despejado
 Viento del ONO
Viento: ONO 22 km/h
Temperatura: 16°C
Rocío: 9°C
Humedad: 63%
Barómetro: 1020 hPa
Resumen: Despejado
Visibility: greater than 10 km
2022/06/28 02:30 LEZG 280230Z 29012KT 260V320 CAVOK 16/09 Q1020
LEMD - Madrid/Barajas, Spain
Distance from station: ONO 234km
Actualización: Tue, 28-Jun-2022 4:30am CEST
Despejado
Despejado
 Viento del NE
Viento: NE 6 km/h
Temperatura: 16°C
Rocío: 7°C
Humedad: 55%
Barómetro: 1020 hPa
Resumen: Despejado
Visibility: greater than 10 km
2022/06/28 02:30 LEMD 280230Z 04003KT 020V080 CAVOK 16/07 Q1020 NOSIG
 
LEGR - Granada Airport, Spain
Distance from station: OSO 62km
Actualización: Tue, 28-Jun-2022 4:30am CEST
Despejado
Despejado
 Viento del calm
Viento: Calma
Temperatura: 13°C
Rocío: 1°C
Humedad: 44%
Barómetro: 1019 hPa
Resumen: Despejado
Visibility: greater than 10 km
2022/06/28 02:30 LEGR 280230Z AUTO 00000KT CAVOK 13/01 Q1019
LEMG - Malaga (civ/Mil), Spain
Distance from station: OSO 227km
Actualización: Tue, 28-Jun-2022 4:30am CEST
Despejado
Despejado
 Viento del ESE
Viento: ESE 9 km/h
Temperatura: 19°C
Rocío: 13°C
Humedad: 68%
Barómetro: 1017 hPa
Resumen: Despejado
Visibility: greater than 10 km
2022/06/28 02:30 LEMG 280230Z 11005KT 080V150 CAVOK 19/13 Q1017 NOSIG
 
LEZL - Sevilla (civ/Mil, Spain
Distance from station: S 318km
Actualización: Tue, 28-Jun-2022 4:30am CEST
Despejado
Despejado
 Viento del varies
Viento: varies 4 km/h
Temperatura: 16°C
Rocío: 10°C
Humedad: 68%
Barómetro: 1016 hPa
Resumen: Despejado
Visibility: greater than 10 km
2022/06/28 02:30 LEZL 280230Z AUTO VRB02KT CAVOK 16/10 Q1016
LEVT - Vitoria, Spain
Distance from station: NO 226km
Actualización: Tue, 28-Jun-2022 4:30am CEST
Muy nuboso
Muy nuboso
 Viento del calm
Viento: Calma
Temperatura: 7°C
Rocío: 7°C
Humedad: 100%
Barómetro: 1023 hPa
Clouds: Muy nuboso
Visibility: 10 km
Cloud details: Muy nuboso 701 m
2022/06/28 02:30 LEVT 280230Z 00000KT 9999 BKN023 07/07 Q1023
 
LEBB - Bilbao/Sondica, Spain
Distance from station: NNO 235km
Actualización: Tue, 28-Jun-2022 4:30am CEST
Few Clouds
Few Clouds
 Viento del E
Viento: E 4 km/h
Temperatura: 11°C
Rocío: 10°C
Humedad: 94%
Barómetro: 1023 hPa
Clouds: Few Clouds
Visibility: 10 km
Cloud details: Few Clouds 1036 m
2022/06/28 02:30 LEBB 280230Z AUTO 08002KT 9999 FEW034 11/10 Q1023
LESO - San Sebastian/Fu, Spain
Distance from station: N 231km
Actualización: Tue, 28-Jun-2022 4:30am CEST
Cubierto
Cubierto
 Viento del varies
Viento: varies 4 km/h
Temperatura: 16°C
Rocío: 15°C
Humedad: 94%
Barómetro: 1022 hPa
Clouds: Cubierto
Visibility: 10 km
Cloud details: Muy nuboso 1219 m
Cubierto 1402 m
2022/06/28 02:30 LESO 280230Z AUTO VRB02KT 9999 BKN040 OVC046 16/15 Q1022
 
LEVD - Valladolid(Mil/C, Spain
Distance from station: ONO 239km
Actualización: Tue, 28-Jun-2022 4:30am CEST
Despejado
Despejado
 Viento del ENE
Viento: ENE 13 km/h
Temperatura: 9°C
Sensación frio: 7°C
Rocío: 6°C
Humedad: 82%
Barómetro: 1021 hPa
Resumen: Despejado
Visibility: greater than 10 km
2022/06/28 02:30 LEVD 280230Z AUTO 07007KT CAVOK 09/06 Q1021
LESA - Salamanca (civ/M, Spain
Distance from station: ONO 349km
Actualización: Tue, 28-Jun-2022 4:30am CEST
Despejado
Despejado
 Viento del NNE
Viento: NNE 11 km/h
Temperatura: 9°C
Sensación frio: 7°C
Rocío: 6°C
Humedad: 82%
Barómetro: 1021 hPa
Clouds: Despejado
Visibility: 8 km
2022/06/28 02:30 LESA 280230Z AUTO 03006KT 8000 NCD 09/06 Q1021
 
LEXJ - Santander/Paraya, Spain
Distance from station: NNO 247km
Actualización: Tue, 28-Jun-2022 4:30am CEST
Despejado
Despejado
 Viento del varies
Viento: varies 2 km/h
Temperatura: 11°C
Rocío: 10°C
Humedad: 94%
Barómetro: 1022 hPa
Resumen: Despejado
Visibility: greater than 10 km
2022/06/28 02:30 LEXJ 280230Z AUTO VRB01KT CAVOK 11/10 Q1022
LEAS - Asturias/Aviles, Spain
Distance from station: NO 214km
Actualización: Tue, 28-Jun-2022 4:30am CEST
Despejado
Despejado
 Viento del SO
Viento: SO 7 km/h
Temperatura: 14°C
Rocío: 11°C
Humedad: 82%
Barómetro: 1022 hPa
Resumen: Despejado
Visibility: greater than 10 km
2022/06/28 02:30 LEAS 280230Z AUTO 22004KT CAVOK 14/11 Q1022
 
LECO - La Coruna/Alvedr, Spain
Distance from station: ONO 222km
Actualización: Tue, 28-Jun-2022 4:30am CEST
Despejado
Despejado
 Viento del S
Viento: S 7 km/h
Temperatura: 10°C
Sensación frio: 9°C
Rocío: 9°C
Humedad: 94%
Barómetro: 1023 hPa
Resumen: Despejado
Visibility: greater than 10 km
2022/06/28 02:30 LECO 280230Z AUTO 17004KT CAVOK 10/09 Q1023
LEVX - Vigo/Peinador, Spain
Distance from station: O 214km
Actualización: Tue, 28-Jun-2022 4:30am CEST
Despejado
Despejado
 Viento del varies
Viento: varies 2 km/h
Temperatura: 11°C
Rocío: 9°C
Humedad: 88%
Barómetro: 1022 hPa
Resumen: Despejado
Visibility: greater than 10 km
2022/06/28 02:30 LEVX 280230Z VRB01KT CAVOK 11/09 Q1022 NOSIG